Portada
METAR-TAF:

METAR-TAF

Aeroports :

Aeroport de Dakhla

Dakhla, Marroc

latitud: 23-43-05N, longitud: 015-55-55W, altitud: 11 m

Observació

L'informe es va fer fa 13 minuts, a les 11:00 UTC
Vent 22 kt del Nord/Nord-Est
Temperatura 21°C
Humitat 60%
Pressió 1016 hPa
Visibilitat: 8000 m

METAR: GMMH 231100Z 03022KT 8000 NSC 21/13 Q1016 NOSIG

Hora: 11:13 (11:13 UTC)

Pronòstic

L'informe es va fer fa 6 hores i 13 minuts, a les 05:00 UTC
Pronòstic vàlid del 23 a les 06 UTC al 24 a les 12 UTC
Vent 24 kt del Nord/Nord-Est
Visibilitat: 8000 m
Evolucionant progressivament
l' 24 a les 00 UTC al 24 a les 02 UTC
Cel ennuvolat a una alçada de 1000 ft

TAF: GMMH 230500Z 2306/2412 03024KT 8000 NSC BECMG 2400/2402 BKN010

Observacions i pronòstics meteorològics de més de 4000 aeroports (METAR i TAF).

Les estacions disponibles són els punts grocs i vermells al mapa.

Posi el ratolí al punt desitjat per veure el nom de l'estació.

Feu clic per veure les observacions i els pronòstics meteorològics.

Per canviar el mapa: feu clic els botons verds amb una creu de color negre per apropar; al botó verd amb un guió per allunyar la imatge; o en les fletxes verdes per a mapes adjacents.


METAR-TAF: